• Join FlightAware (Why Join?)
  • Login
  • US Flag 
08:01AM EDT


 

Airport Tracker/Info


-or-


 

Live Flight TrackerFlight Track Log ✈ DAL1090 ✈ 03-Sep-2013 ✈ KATL - KCHS

Flight Track Log - Related Links

Times and Time Zones

All times are in EDT time to prevent confusion due to time zone crossing. See the DAL1090 flight status page for this flight to view local times or setup timezone preferences in your user account.

Time Position Orientation Groundspeed Altitude Reporting Facility
EDT Latitude Longitude Course Direction KTS MPH feet Rate Location/Type
06:28PM 33.6350 -84.4190 270° West 115 132  Level FlightAware
06:28PM 33.6350 -84.4390 270° West 163 188 1,300 2,580 Climbing FlightAware
06:29PM 33.6350 -84.4560 270° West 165 190 2,100 1,800 Climbing FlightAware
06:29PM 33.6290 -84.4860 257° West 209 241 2,700 1,560 Climbing FlightAware
06:30PM 33.6130 -84.5240 243° Southwest 244 281 3,600 1,980 Climbing FlightAware
06:30PM 33.6000 -84.5550 243° Southwest 258 297 4,500 2,280 Climbing FlightAware
06:30PM 33.5930 -84.5680 237° Southwest 264 304 5,000 2,400 Climbing FlightAware
06:30PM 33.5850 -84.5770 223° Southwest 269 310 5,300 2,220 Climbing FlightAware
06:31PM 33.5760 -84.5820 205° Southwest 274 315 5,600 2,400 Climbing FlightAware
06:31PM 33.5600 -84.5850 189° South 280 322 6,100 2,700 Climbing FlightAware
06:31PM 33.5220 -84.5840 179° South 291 335 7,400 2,820 Climbing FlightAware
06:32PM 33.4870 -84.5760 169° South 301 346 8,700 2,700 Climbing FlightAware
06:32PM 33.4770 -84.5690 150° Southeast 309 356 9,000 2,220 Climbing FlightAware
06:32PM 33.4690 -84.5590 134° Southeast 313 360 9,300 2,700 Climbing FlightAware
06:32PM 33.4600 -84.5400 120° Southeast 316 364 9,900 2,760 Climbing FlightAware
06:32PM 33.4560 -84.5130 100° East 323 372 10,600 1,860 Climbing FlightAware
06:33PM 33.4570 -84.4520 89° East 360 414 11,400 1,560 Climbing FlightAware
06:34PM 33.4570 -84.3840 90° East 385 443 12,500 2,460 Climbing FlightAware
06:34PM 33.4570 -84.2860 90° East 395 455 14,600 2,880 Climbing FlightAware
06:35PM 33.4670 -84.2090 81° East 407 468 16,100 2,640 Climbing FlightAware
06:35PM 33.4790 -84.1260 80° East 414 476 17,800 2,580 Climbing FlightAware
06:36PM 33.4910 -84.0450 80° East 422 486 19,200 2,460 Climbing FlightAware
06:37PM 33.5010 -83.9710 81° East 425 489 20,600 2,460 Climbing FlightAware
06:37PM 33.5130 -83.8880 80° East 431 496 22,000 1,980 Climbing FlightAware
06:38PM 33.5260 -83.8010 80° East 442 509 23,000 840 Climbing FlightAware
06:38PM 33.5370 -83.7240 80° East 442 509 23,000  Level FlightAware
06:39PM 33.5530 -83.6060 81° East 437 503 23,000  Level FlightAware
06:40PM 33.5620 -83.5280 82° East 436 502 23,000  Level FlightAware
06:40PM 33.5710 -83.4390 83° East 439 505 23,000  Level FlightAware
06:41PM 33.5840 -83.3190 83° East 437 503 23,000  Level FlightAware
06:42PM 33.5930 -83.2400 82° East 439 505 23,000  Level FlightAware
06:42PM 33.6030 -83.1520 82° East 440 506 23,000  Level FlightAware
06:43PM 33.6130 -83.0620 82° East 438 504 23,000  Level FlightAware
06:43PM 33.6220 -82.9770 83° East 440 506 23,000  Level FlightAware
06:44PM 33.6310 -82.8910 83° East 439 505 23,000  Level FlightAware
06:45PM 33.6400 -82.8140 82° East 439 505 23,000  Level FlightAware
06:45PM 33.6490 -82.7240 83° East 439 505 23,000  Level FlightAware
06:46PM 33.6580 -82.6350 83° East 439 505 23,000  Level FlightAware
06:46PM 33.6670 -82.5560 82° East 441 507 23,000  Level FlightAware
06:47PM 33.6760 -82.4660 83° East 443 510 23,000  Level FlightAware
06:48PM 33.6850 -82.3810 83° East 443 510 23,000  Level FlightAware
06:48PM 33.6930 -82.3020 83° East 443 510 23,000  Level FlightAware
06:49PM 33.7020 -82.2180 83° East 443 510 23,000  Level FlightAware
06:49PM 33.6980 -82.1380 93° East 448 516 23,000  Level FlightAware
06:50PM 33.6740 -82.0540 109° East 451 519 23,000  Level FlightAware
06:50PM 33.6480 -81.9730 111° Southeast 451 519 23,000  Level FlightAware
06:51PM 33.6220 -81.8910 111° Southeast 450 518 23,000  Level FlightAware
06:52PM 33.5990 -81.8150 110° East 448 516 23,000 -180 Level FlightAware
06:52PM 33.5710 -81.7270 111° Southeast 447 514 22,800 -720 Descending FlightAware
06:53PM 33.5460 -81.6470 111° Southeast 440 506 22,200 -1,140 Descending FlightAware
06:53PM 33.5170 -81.5580 111° Southeast 441 507 21,500 -1,020 Descending FlightAware
06:54PM 33.4940 -81.4830 110° East 436 502 21,000 -1,020 Descending FlightAware
06:55PM 33.4690 -81.4050 111° Southeast 434 499 20,400 -1,020 Descending FlightAware
06:55PM 33.4430 -81.3240 111° Southeast 430 495 19,800 -1,080 Descending FlightAware
06:56PM 33.4190 -81.2510 111° Southeast 425 489 19,200 -1,080 Descending FlightAware
06:56PM 33.3940 -81.1720 111° Southeast 427 491 18,600 -1,140 Descending FlightAware
06:57PM 33.3670 -81.0900 111° Southeast 416 479 17,800 -1,860 Descending FlightAware
06:58PM 33.3420 -81.0120 111° Southeast 409 471 16,300 -2,520 Descending FlightAware
06:58PM 33.3160 -80.9300 111° Southeast 402 463 14,700 -2,520 Descending FlightAware
06:59PM 33.2960 -80.8700 112° Southeast 394 453 13,500 -2,400 Descending FlightAware
06:59PM 33.2770 -80.8100 111° Southeast 390 449 12,300 -2,160 Descending FlightAware
07:00PM 33.2510 -80.7310 111° Southeast 386 444 11,000 -1,020 Descending FlightAware
07:01PM 33.2300 -80.6650 111° Southeast 386 444 11,000 60 Level FlightAware
07:01PM 33.2320 -80.6720 289° West 350 403 11,100 60 Climbing FlightAware
07:02PM 33.2140 -80.6150 111° Southeast 350 403 11,100  Level FlightAware
07:02PM 33.1960 -80.5580 111° Southeast 350 403 11,100 -1,860 Level FlightAware
07:04PM 33.0950 -80.2920 114° Southeast 284 327 6,300 -2,040 Descending FlightAware
07:05PM 33.0850 -80.2620 112° Southeast 284 327 6,300 -1,860 Level FlightAware
07:06PM 33.0428 -80.1444 112° Southeast 285 328 3,000 -1,920 Descending Jacksonville Center
07:07PM 32.9917 -80.1089 150° Southeast 228 262 1,800 -1,080 Descending Jacksonville Center
07:08PM 32.9514 -80.0781 147° Southeast 199 229 900 -900 Descending Jacksonville Center
07:09PM 32.9153 -80.0519 149° Southeast 173 199 100 -840 Descending Jacksonville Center